Time,TemperatureF,DewpointF,PressureIn,WindDirection,WindDirectionDegrees,WindSpeedMPH,WindSpeedGustMPH,Humidity,HourlyPrecipIn,Conditions,Clouds,dailyrainin,SolarRadiationWatts/m^2,SoftwareType,DateUTC
2013-11-14 00:10:00,27.6,17.0,30.24,WSW,254,6.0,-999.0,65,-99.99,,,0.00,0,weatherlink.com 1.10,2013-11-14 05:10:00,
2013-11-14 00:25:00,27.6,17.0,30.23,SW,222,2.0,-999.0,65,-99.99,,,0.00,0,weatherlink.com 1.10,2013-11-14 05:25:00,
2013-11-14 00:40:00,27.7,16.0,30.22,SW,232,4.0,-999.0,63,-99.99,,,0.00,0,weatherlink.com 1.10,2013-11-14 05:40:00,
2013-11-14 00:55:00,27.8,17.0,30.22,WSW,240,6.0,-999.0,63,-99.99,,,0.00,0,weatherlink.com 1.10,2013-11-14 05:55:00,
2013-11-14 01:10:00,27.8,16.0,30.22,West,264,4.0,-999.0,62,-99.99,,,0.00,0,weatherlink.com 1.10,2013-11-14 06:10:00,
2013-11-14 01:25:00,27.6,16.0,30.21,South,178,7.0,-999.0,62,-99.99,,,0.00,0,weatherlink.com 1.10,2013-11-14 06:25:00,
2013-11-14 01:40:00,27.6,16.0,30.21,SSW,205,7.0,-999.0,61,-99.99,,,0.00,0,weatherlink.com 1.10,2013-11-14 06:40:00,
2013-11-14 01:55:00,27.6,16.0,30.21,WSW,246,5.0,-999.0,61,-99.99,,,0.00,0,weatherlink.com 1.10,2013-11-14 06:55:00,
2013-11-14 02:10:00,27.8,15.0,30.23,WSW,242,2.0,-999.0,60,-99.99,,,0.00,0,weatherlink.com 1.10,2013-11-14 07:10:00,
2013-11-14 02:25:00,27.9,16.0,30.22,SW,217,1.0,-999.0,60,-99.99,,,0.00,0,weatherlink.com 1.10,2013-11-14 07:25:00,
2013-11-14 02:40:00,27.9,16.0,30.21,SW,233,4.0,-999.0,60,-99.99,,,0.00,0,weatherlink.com 1.10,2013-11-14 07:40:00,
2013-11-14 02:55:00,27.7,15.0,30.20,SSW,204,4.0,-999.0,59,-99.99,,,0.00,0,weatherlink.com 1.10,2013-11-14 07:55:00,
2013-11-14 03:10:00,27.7,15.0,30.20,SSW,197,6.0,-999.0,59,-99.99,,,0.00,0,weatherlink.com 1.10,2013-11-14 08:10:00,
2013-11-14 03:25:00,27.6,15.0,30.20,WSW,244,4.0,-999.0,59,-99.99,,,0.00,0,weatherlink.com 1.10,2013-11-14 08:25:00,
2013-11-14 03:40:00,27.7,15.0,30.20,SSW,209,0.0,-999.0,59,-99.99,,,0.00,0,weatherlink.com 1.10,2013-11-14 08:40:00,
2013-11-14 03:55:00,27.8,15.0,30.21,South,178,3.0,-999.0,58,-99.99,,,0.00,0,weatherlink.com 1.10,2013-11-14 08:55:00,
2013-11-14 04:10:00,28.0,14.0,30.20,SSW,200,5.0,-999.0,57,-99.99,,,0.00,0,weatherlink.com 1.10,2013-11-14 09:10:00,
2013-11-14 04:25:00,28.0,14.0,30.20,SW,221,4.0,-999.0,57,-99.99,,,0.00,0,weatherlink.com 1.10,2013-11-14 09:25:00,
2013-11-14 04:40:00,28.0,14.0,30.20,WSW,238,0.0,-999.0,56,-99.99,,,0.00,0,weatherlink.com 1.10,2013-11-14 09:40:00,
2013-11-14 04:55:00,28.2,14.0,30.21,SW,227,1.0,-999.0,55,-99.99,,,0.00,0,weatherlink.com 1.10,2013-11-14 09:55:00,
2013-11-14 05:10:00,28.1,14.0,30.21,SSW,209,5.0,-999.0,56,-99.99,,,0.00,0,weatherlink.com 1.10,2013-11-14 10:10:00,
2013-11-14 05:25:00,28.0,14.0,30.21,SW,234,3.0,-999.0,56,-99.99,,,0.00,0,weatherlink.com 1.10,2013-11-14 10:25:00,
2013-11-14 05:40:00,27.7,14.0,30.21,SSW,207,4.0,-999.0,57,-99.99,,,0.00,0,weatherlink.com 1.10,2013-11-14 10:40:00,
2013-11-14 05:55:00,27.7,14.0,30.21,SSW,194,6.0,-999.0,57,-99.99,,,0.00,0,weatherlink.com 1.10,2013-11-14 10:55:00,
2013-11-14 06:10:00,27.6,14.0,30.22,West,261,3.0,-999.0,57,-99.99,,,0.00,0,weatherlink.com 1.10,2013-11-14 11:10:00,
2013-11-14 06:25:00,27.5,14.0,30.22,South,177,0.0,-999.0,57,-99.99,,,0.00,0,weatherlink.com 1.10,2013-11-14 11:25:00,
2013-11-14 06:40:00,27.6,14.0,30.22,WSW,239,1.0,-999.0,57,-99.99,,,0.00,0,weatherlink.com 1.10,2013-11-14 11:40:00,
2013-11-14 06:55:00,27.7,14.0,30.23,SSE,153,2.0,-999.0,56,-99.99,,,0.00,11,weatherlink.com 1.10,2013-11-14 11:55:00,
2013-11-14 07:10:00,28.0,14.0,30.23,SSW,211,1.0,-999.0,56,-99.99,,,0.00,19,weatherlink.com 1.10,2013-11-14 12:10:00,
2013-11-14 07:25:00,28.2,14.0,30.23,SSW,207,4.0,-999.0,55,-99.99,,,0.00,19,weatherlink.com 1.10,2013-11-14 12:25:00,
2013-11-14 07:40:00,28.4,14.0,30.23,WSW,244,3.0,-999.0,55,-99.99,,,0.00,51,weatherlink.com 1.10,2013-11-14 12:40:00,
2013-11-14 07:55:00,29.9,15.0,30.23,WSW,255,6.0,-999.0,53,-99.99,,,0.00,84,weatherlink.com 1.10,2013-11-14 12:55:00,
2013-11-14 08:10:00,30.6,15.0,30.23,SW,217,7.0,-999.0,52,-99.99,,,0.00,156,weatherlink.com 1.10,2013-11-14 13:10:00,
2013-11-14 08:25:00,31.3,15.0,30.23,SW,216,7.0,-999.0,51,-99.99,,,0.00,204,weatherlink.com 1.10,2013-11-14 13:25:00,
2013-11-14 08:40:00,32.0,16.0,30.23,SSW,198,3.0,-999.0,51,-99.99,,,0.00,248,weatherlink.com 1.10,2013-11-14 13:40:00,
2013-11-14 08:55:00,32.7,15.0,30.23,SSW,200,6.0,-999.0,49,-99.99,,,0.00,279,weatherlink.com 1.10,2013-11-14 13:55:00,
2013-11-14 09:10:00,33.4,16.0,30.23,WSW,239,7.0,-999.0,49,-99.99,,,0.00,309,weatherlink.com 1.10,2013-11-14 14:10:00,
2013-11-14 09:40:00,34.7,17.0,30.24,SW,233,1.0,-999.0,48,-99.99,,,0.00,369,weatherlink.com 1.10,2013-11-14 14:40:00,
2013-11-14 09:55:00,35.3,17.0,30.24,SSE,162,10.0,-999.0,47,-99.99,,,0.00,392,weatherlink.com 1.10,2013-11-14 14:55:00,
2013-11-14 10:10:00,35.5,16.0,30.24,SSE,165,0.0,-999.0,46,-99.99,,,0.00,413,weatherlink.com 1.10,2013-11-14 15:10:00,
2013-11-14 10:25:00,36.8,17.0,30.23,South,173,10.0,-999.0,45,-99.99,,,0.00,432,weatherlink.com 1.10,2013-11-14 15:25:00,
2013-11-14 10:40:00,37.2,17.0,30.22,SW,215,10.0,-999.0,44,-99.99,,,0.00,450,weatherlink.com 1.10,2013-11-14 15:40:00,
2013-11-14 10:55:00,38.2,18.0,30.21,SW,223,7.0,-999.0,44,-99.99,,,0.00,450,weatherlink.com 1.10,2013-11-14 15:55:00,
2013-11-14 11:10:00,39.1,19.0,30.21,SSW,201,4.0,-999.0,44,-99.99,,,0.00,469,weatherlink.com 1.10,2013-11-14 16:10:00,
2013-11-14 11:25:00,39.7,19.0,30.20,SW,229,4.0,-999.0,44,-99.99,,,0.00,471,weatherlink.com 1.10,2013-11-14 16:25:00,
2013-11-14 11:40:00,40.4,20.0,30.19,WNW,287,1.0,-999.0,45,-99.99,,,0.00,468,weatherlink.com 1.10,2013-11-14 16:40:00,
2013-11-14 11:55:00,41.0,20.0,30.18,SSW,194,4.0,-999.0,43,-99.99,,,0.00,468,weatherlink.com 1.10,2013-11-14 16:55:00,
2013-11-14 12:11:00,42.0,21.0,30.18,WSW,242,7.0,-999.0,43,-99.99,,,0.00,471,weatherlink.com 1.10,2013-11-14 17:11:00,
2013-11-14 12:25:00,42.7,20.0,30.18,SE,128,5.0,-999.0,41,-99.99,,,0.00,462,weatherlink.com 1.10,2013-11-14 17:25:00,
2013-11-14 12:40:00,43.3,20.0,30.18,SW,230,2.0,-999.0,39,-99.99,,,0.00,445,weatherlink.com 1.10,2013-11-14 17:40:00,
2013-11-14 12:55:00,44.5,20.0,30.17,SSW,202,1.0,-999.0,38,-99.99,,,0.00,425,weatherlink.com 1.10,2013-11-14 17:55:00,
2013-11-14 13:10:00,44.3,17.0,30.17,SW,232,4.0,-999.0,34,-99.99,,,0.00,420,weatherlink.com 1.10,2013-11-14 18:10:00,
2013-11-14 13:25:00,44.8,16.0,30.17,WSW,244,5.0,-999.0,32,-99.99,,,0.00,362,weatherlink.com 1.10,2013-11-14 18:25:00,
2013-11-14 13:40:00,45.3,18.0,30.16,WNW,295,2.0,-999.0,34,-99.99,,,0.00,318,weatherlink.com 1.10,2013-11-14 18:40:00,
2013-11-14 13:55:00,45.6,18.0,30.16,SSW,200,4.0,-999.0,33,-99.99,,,0.00,304,weatherlink.com 1.10,2013-11-14 18:55:00,
2013-11-14 14:10:00,45.3,18.0,30.15,WSW,238,4.0,-999.0,34,-99.99,,,0.00,216,weatherlink.com 1.10,2013-11-14 19:10:00,
2013-11-14 14:25:00,45.2,17.0,30.15,West,259,7.0,-999.0,33,-99.99,,,0.00,279,weatherlink.com 1.10,2013-11-14 19:25:00,
2013-11-14 14:40:00,45.8,18.0,30.16,SW,220,4.0,-999.0,33,-99.99,,,0.00,248,weatherlink.com 1.10,2013-11-14 19:40:00,
2013-11-14 14:55:00,45.9,17.0,30.16,SW,219,5.0,-999.0,32,-99.99,,,0.00,195,weatherlink.com 1.10,2013-11-14 19:55:00,
2013-11-14 15:10:00,46.1,17.0,30.16,West,281,6.0,-999.0,31,-99.99,,,0.00,153,weatherlink.com 1.10,2013-11-14 20:10:00,
2013-11-14 15:25:00,46.0,17.0,30.16,SW,232,9.0,-999.0,32,-99.99,,,0.00,104,weatherlink.com 1.10,2013-11-14 20:25:00,
2013-11-14 15:40:00,45.7,17.0,30.15,SSW,205,2.0,-999.0,32,-99.99,,,0.00,69,weatherlink.com 1.10,2013-11-14 20:40:00,
2013-11-14 15:56:00,45.4,16.0,30.15,SSW,201,4.0,-999.0,31,-99.99,,,0.00,32,weatherlink.com 1.10,2013-11-14 20:56:00,
2013-11-14 16:11:00,44.4,16.0,30.15,WSW,240,2.0,-999.0,32,-99.99,,,0.00,14,weatherlink.com 1.10,2013-11-14 21:11:00,
2013-11-14 16:26:00,43.7,15.0,30.15,SW,232,6.0,-999.0,32,-99.99,,,0.00,9,weatherlink.com 1.10,2013-11-14 21:26:00,
2013-11-14 16:41:00,43.2,15.0,30.16,WSW,255,4.0,-999.0,32,-99.99,,,0.00,0,weatherlink.com 1.10,2013-11-14 21:41:00,
2013-11-14 16:56:00,42.3,16.0,30.16,SW,232,4.0,-999.0,35,-99.99,,,0.00,0,weatherlink.com 1.10,2013-11-14 21:56:00,
2013-11-14 17:11:00,40.7,16.0,30.16,SW,222,6.0,-999.0,37,-99.99,,,0.00,0,weatherlink.com 1.10,2013-11-14 22:11:00,
2013-11-14 17:26:00,40.1,17.0,30.17,South,169,6.0,-999.0,39,-99.99,,,0.00,0,weatherlink.com 1.10,2013-11-14 22:26:00,
2013-11-14 17:41:00,39.6,17.0,30.17,South,183,9.0,-999.0,40,-99.99,,,0.00,0,weatherlink.com 1.10,2013-11-14 22:41:00,
2013-11-14 17:56:00,39.5,17.0,30.17,SSW,195,1.0,-999.0,40,-99.99,,,0.00,0,weatherlink.com 1.10,2013-11-14 22:56:00,
2013-11-14 18:11:00,39.2,17.0,30.17,SW,215,0.0,-999.0,40,-99.99,,,0.00,0,weatherlink.com 1.10,2013-11-14 23:11:00,
2013-11-14 18:26:00,38.7,17.0,30.17,SSW,211,1.0,-999.0,41,-99.99,,,0.00,0,weatherlink.com 1.10,2013-11-14 23:26:00,
2013-11-14 18:41:00,38.4,16.0,30.17,SSW,196,5.0,-999.0,40,-99.99,,,0.00,0,weatherlink.com 1.10,2013-11-14 23:41:00,
2013-11-14 18:56:00,38.2,16.0,30.17,South,186,1.0,-999.0,41,-99.99,,,0.00,0,weatherlink.com 1.10,2013-11-14 23:56:00,
2013-11-14 19:11:00,38.3,16.0,30.17,SW,217,2.0,-999.0,40,-99.99,,,0.00,0,weatherlink.com 1.10,2013-11-15 00:11:00,
2013-11-14 19:26:00,38.4,15.0,30.18,SW,220,1.0,-999.0,39,-99.99,,,0.00,0,weatherlink.com 1.10,2013-11-15 00:26:00,
2013-11-14 19:41:00,38.6,15.0,30.18,South,186,1.0,-999.0,39,-99.99,,,0.00,0,weatherlink.com 1.10,2013-11-15 00:41:00,
2013-11-14 19:56:00,38.7,15.0,30.18,SSW,210,4.0,-999.0,38,-99.99,,,0.00,0,weatherlink.com 1.10,2013-11-15 00:56:00,
2013-11-14 20:11:00,38.5,15.0,30.17,SSW,209,4.0,-999.0,38,-99.99,,,0.00,0,weatherlink.com 1.10,2013-11-15 01:11:00,
2013-11-14 20:26:00,38.4,15.0,30.17,SSW,213,1.0,-999.0,38,-99.99,,,0.00,0,weatherlink.com 1.10,2013-11-15 01:26:00,
2013-11-14 20:41:00,38.3,15.0,30.17,South,178,4.0,-999.0,38,-99.99,,,0.00,0,weatherlink.com 1.10,2013-11-15 01:41:00,
2013-11-14 20:56:00,38.2,14.0,30.17,SW,225,3.0,-999.0,37,-99.99,,,0.00,0,weatherlink.com 1.10,2013-11-15 01:56:00,
2013-11-14 21:11:00,38.5,14.0,30.17,SE,137,2.0,-999.0,36,-99.99,,,0.00,0,weatherlink.com 1.10,2013-11-15 02:11:00,
2013-11-14 21:26:00,39.0,13.0,30.16,WSW,252,4.0,-999.0,35,-99.99,,,0.00,0,weatherlink.com 1.10,2013-11-15 02:26:00,
2013-11-14 21:41:00,39.0,13.0,30.16,SW,232,2.0,-999.0,35,-99.99,,,0.00,0,weatherlink.com 1.10,2013-11-15 02:41:00,
2013-11-14 21:56:00,38.9,13.0,30.17,SSW,198,1.0,-999.0,34,-99.99,,,0.00,0,weatherlink.com 1.10,2013-11-15 02:56:00,
2013-11-14 22:11:00,38.9,13.0,30.17,WSW,244,4.0,-999.0,34,-99.99,,,0.00,0,weatherlink.com 1.10,2013-11-15 03:11:00,
2013-11-14 22:26:00,39.1,13.0,30.17,WSW,255,3.0,-999.0,34,-99.99,,,0.00,0,weatherlink.com 1.10,2013-11-15 03:26:00,
2013-11-14 22:41:00,39.2,12.0,30.18,SW,223,3.0,-999.0,33,-99.99,,,0.00,0,weatherlink.com 1.10,2013-11-15 03:41:00,
2013-11-14 22:56:00,39.2,12.0,30.18,SW,219,5.0,-999.0,33,-99.99,,,0.00,0,weatherlink.com 1.10,2013-11-15 03:56:00,
2013-11-14 23:11:00,39.1,12.0,30.18,SSW,200,2.0,-999.0,33,-99.99,,,0.00,0,weatherlink.com 1.10,2013-11-15 04:11:00,
2013-11-14 23:26:00,38.5,13.0,30.18,SW,232,2.0,-999.0,35,-99.99,,,0.00,0,weatherlink.com 1.10,2013-11-15 04:26:00,
2013-11-14 23:41:00,38.0,12.0,30.18,South,186,2.0,-999.0,35,-99.99,,,0.00,0,weatherlink.com 1.10,2013-11-15 04:41:00,
2013-11-14 23:56:00,37.6,13.0,30.18,SSW,196,3.0,-999.0,36,-99.99,,,0.00,0,weatherlink.com 1.10,2013-11-15 04:56:00,